Time;durP1;ratioP1;P1;durP2;ratioP2;P2;SDS_P1;SDS_P2;PMS_P1;PMS_P2;Temp;Humidity;BMP_temperature;BMP_pressure;BME280_temperature;BME280_humidity;BME280_pressure;Samples;Min_cycle;Max_cycle;Signal;HPM_P1;HPM_P2
2022/01/11 00:00:01;;;;;;;20.67;10.16;;;;;;;0.86;95.52;100626.75;2006926;80;20419;-71
2022/01/11 00:03:06;;;;;;;19.09;10.54;;;;;;;0.85;95.49;100622.44;2007648;78;27418;-71
2022/01/11 00:09:34;;;;;;;19.60;10.89;;;;;;;0.89;95.65;100628.59;2007379;80;20323;-71
2022/01/11 00:12:37;;;;;;;19.79;10.14;;;;;;;0.91;95.81;100632.16;2007140;80;20341;-71
2022/01/11 00:15:39;;;;;;;26.52;10.36;;;;;;;0.90;95.71;100635.50;2004988;78;21245;-71
2022/01/11 00:18:42;;;;;;;18.07;9.44;;;;;;;0.86;95.62;100633.56;2006882;80;20210;-72
2022/01/11 00:21:47;;;;;;;21.49;10.71;;;;;;;0.74;95.37;100636.34;2006552;80;20238;-71
2022/01/11 00:24:50;;;;;;;17.53;9.92;;;;;;;0.70;95.32;100653.97;2007011;80;20315;-71
2022/01/11 00:27:52;;;;;;;19.13;8.60;;;;;;;0.66;95.34;100645.25;2006945;80;20231;-71
2022/01/11 00:30:55;;;;;;;14.66;8.41;;;;;;;0.67;95.53;100639.34;2005496;80;20819;-71
2022/01/11 00:34:00;;;;;;;18.75;9.05;;;;;;;0.69;95.60;100649.66;2081127;69;21106;-71
2022/01/11 00:37:03;;;;;;;15.54;8.95;;;;;;;0.66;95.44;100639.25;2011918;80;20873;-71
2022/01/11 00:40:08;;;;;;;16.71;8.36;;;;;;;0.63;95.40;100639.09;2012871;80;20703;-71
2022/01/11 00:43:10;;;;;;;17.34;8.80;;;;;;;0.59;95.29;100638.06;2012307;80;20351;-71
2022/01/11 00:46:14;;;;;;;15.38;7.65;;;;;;;0.58;95.32;100642.28;2010546;77;21270;-71
2022/01/11 00:49:17;;;;;;;17.01;8.23;;;;;;;0.54;95.30;100642.03;2015259;80;20314;-71
2022/01/11 00:52:19;;;;;;;16.86;8.48;;;;;;;0.54;95.37;100639.50;2012965;80;20441;-71
2022/01/11 00:55:22;;;;;;;16.73;8.94;;;;;;;0.54;95.49;100640.38;2011946;80;20176;-71
2022/01/11 00:58:24;;;;;;;16.37;8.92;;;;;;;0.51;95.38;100642.72;2012582;80;20214;-71
2022/01/11 01:01:33;;;;;;;20.73;9.21;;;;;;;0.44;95.15;100643.19;2010695;77;20473;-71
2022/01/11 01:04:36;;;;;;;;;;;;;;;0.42;95.21;100644.78;2012409;80;20181;-71
2022/01/11 01:07:39;;;;;;;18.23;8.87;;;;;;;0.44;95.34;100647.44;2012726;80;20122;-71
2022/01/11 01:10:46;;;;;;;18.64;9.46;;;;;;;0.43;95.37;100645.66;2012184;80;20233;-71
2022/01/11 01:13:49;;;;;;;17.84;9.00;;;;;;;0.44;95.45;100649.97;2015355;80;20276;-71
2022/01/11 01:16:51;;;;;;;17.11;9.60;;;;;;;0.43;95.56;100654.22;2009508;78;20345;-71
2022/01/11 01:19:54;;;;;;;23.09;9.56;;;;;;;0.45;95.63;100664.50;2008846;80;20395;-71
2022/01/11 01:22:57;;;;;;;17.13;8.92;;;;;;;0.41;95.52;100663.47;2011646;80;20420;-71
2022/01/11 01:26:01;;;;;;;22.44;9.35;;;;;;;0.36;95.50;100666.53;2011590;80;20565;-71
2022/01/11 01:29:04;;;;;;;21.19;9.66;;;;;;;0.38;95.58;100670.09;2012131;80;20362;-71
2022/01/11 01:32:10;;;;;;;20.16;9.32;;;;;;;0.38;95.63;100672.63;2010413;78;21019;-71
2022/01/11 01:35:12;;;;;;;22.58;9.35;;;;;;;0.35;95.51;100673.31;2011686;80;20364;-71
2022/01/11 01:38:21;;;;;;;21.90;10.29;;;;;;;0.27;95.25;100672.00;2012132;80;20460;-71
2022/01/11 01:41:24;;;;;;;22.24;10.00;;;;;;;0.28;95.40;100684.00;2011753;80;21017;-71
2022/01/11 01:44:27;;;;;;;20.97;9.29;;;;;;;0.27;95.46;100683.13;2012640;80;20556;-71
2022/01/11 01:47:30;;;;;;;24.48;8.96;;;;;;;0.27;95.49;100682.22;2006345;78;23339;-71
2022/01/11 01:50:34;;;;;;;17.90;8.31;;;;;;;0.28;95.52;100696.75;2012163;80;20200;-71
2022/01/11 01:53:41;;;;;;;18.73;8.77;;;;;;;0.22;95.43;100692.19;2011966;80;20718;-71
2022/01/11 01:56:44;;;;;;;16.57;8.26;;;;;;;0.20;95.46;100688.69;2012317;80;20441;-71
2022/01/11 01:59:47;;;;;;;15.37;8.23;;;;;;;0.23;95.68;100691.41;2012947;80;20622;-71
2022/01/11 02:02:50;;;;;;;17.69;8.41;;;;;;;0.25;95.63;100697.47;2009904;78;31253;-71
2022/01/11 02:05:55;;;;;;;15.10;8.42;;;;;;;0.26;95.72;100690.69;2011760;80;20208;-71
2022/01/11 02:08:58;;;;;;;18.77;8.35;;;;;;;0.27;95.75;100703.53;2011956;80;20809;-71
2022/01/11 02:12:00;;;;;;;15.93;8.39;;;;;;;0.28;95.74;100696.75;2012077;80;20343;-71
2022/01/11 02:15:07;;;;;;;14.81;8.64;;;;;;;0.23;95.48;100699.06;2010372;80;20419;-71
2022/01/11 02:18:21;;;;;;;16.94;8.22;;;;;;;0.21;95.57;100689.56;2011522;78;21070;-71
2022/01/11 02:21:24;;;;;;;17.69;9.91;;;;;;;0.24;95.56;100698.25;2011465;80;20190;-71
2022/01/11 02:24:28;;;;;;;17.19;7.94;;;;;;;0.21;95.45;100692.09;2012026;80;20218;-71
2022/01/11 02:27:31;;;;;;;19.14;8.99;;;;;;;0.22;95.60;100704.97;2011816;80;20356;-71
2022/01/11 02:30:34;;;;;;;17.48;9.36;;;;;;;0.21;95.57;100699.78;2010314;77;20660;-71
2022/01/11 02:33:42;;;;;;;17.66;9.38;;;;;;;0.22;95.63;100714.31;2012697;80;20445;-71
2022/01/11 02:36:44;;;;;;;20.31;9.91;;;;;;;0.21;95.63;100712.53;2011400;80;20257;-71
2022/01/11 02:39:47;;;;;;;18.12;9.96;;;;;;;0.19;95.48;100721.78;2012094;80;20165;-71
2022/01/11 02:42:50;;;;;;;19.70;10.27;;;;;;;0.20;95.58;100718.44;2011842;80;20241;-71
2022/01/11 02:45:52;;;;;;;21.63;11.20;;;;;;;0.19;95.53;100719.22;2009887;78;22800;-71
2022/01/11 02:48:56;;;;;;;20.69;10.79;;;;;;;0.14;95.40;100728.28;2011839;80;20991;-71
2022/01/11 02:51:59;;;;;;;21.00;9.89;;;;;;;0.14;95.47;100725.72;2011749;80;20201;-71
2022/01/11 02:55:06;;;;;;;17.00;9.94;;;;;;;0.13;95.62;100724.84;2011535;80;20176;-71
2022/01/11 02:58:10;;;;;;;17.75;8.05;;;;;;;0.13;95.52;100718.84;2011237;80;20198;-71
2022/01/11 03:01:13;;;;;;;15.77;7.68;;;;;;;0.09;95.37;100729.69;2010303;78;21094;-71
2022/01/11 03:04:15;;;;;;;13.71;7.44;;;;;;;0.03;95.26;100721.69;2013205;80;20378;-71
2022/01/11 03:07:21;;;;;;;20.32;6.57;;;;;;;0.00;95.21;100730.03;2013072;80;20202;-71
2022/01/11 03:10:32;;;;;;;15.41;7.31;;;;;;;-0.04;95.11;100725.53;2013184;80;20241;-71
2022/01/11 03:13:35;;;;;;;15.00;7.02;;;;;;;-0.10;95.04;100726.06;2013284;80;20180;-71
2022/01/11 03:16:38;;;;;;;12.92;6.80;;;;;;;-0.10;95.37;100728.59;2010779;78;20273;-71
2022/01/11 03:19:41;;;;;;;13.01;7.43;;;;;;;-0.07;95.47;100725.34;2013494;80;20218;-71
2022/01/11 03:22:43;;;;;;;15.49;7.36;;;;;;;-0.05;95.57;100737.41;2011983;80;20201;-71
2022/01/11 03:25:47;;;;;;;12.20;6.40;;;;;;;-0.03;95.64;100733.28;2013530;80;20308;-71
2022/01/11 03:28:50;;;;;;;13.27;6.56;;;;;;;-0.04;95.60;100734.06;2013969;80;20265;-71
2022/01/11 03:31:53;;;;;;;13.72;7.91;;;;;;;-0.11;95.34;100744.72;2012552;78;21934;-71
2022/01/11 03:34:55;;;;;;;14.09;6.45;;;;;;;-0.14;95.33;100746.22;2014088;80;20180;-71
2022/01/11 03:37:58;;;;;;;17.73;8.02;;;;;;;-0.13;95.45;100745.41;2014157;80;20820;-71
2022/01/11 03:41:00;;;;;;;16.50;7.71;;;;;;;-0.14;95.38;100747.09;2010500;80;20741;-71
2022/01/11 03:44:04;;;;;;;18.04;8.90;;;;;;;-0.17;95.42;100744.34;2014098;80;20180;-71
2022/01/11 03:47:07;;;;;;;19.14;8.36;;;;;;;-0.21;95.21;100749.16;2011804;78;20938;-71
2022/01/11 03:50:11;;;;;;;16.04;7.51;;;;;;;-0.20;95.52;100750.91;2014228;80;20262;-71
2022/01/11 03:53:16;;;;;;;21.01;7.34;;;;;;;-0.22;95.45;100753.38;2013970;80;20184;-71
2022/01/11 03:56:22;;;;;;;13.47;6.56;;;;;;;-0.22;95.46;100750.84;2013702;80;20172;-71
2022/01/11 03:59:24;;;;;;;18.57;5.66;;;;;;;-0.27;95.39;100751.34;2013541;80;20200;-71
2022/01/11 04:02:28;;;;;;;14.32;7.14;;;;;;;-0.36;95.04;100737.28;2011772;78;20333;-71
2022/01/11 04:05:31;;;;;;;16.31;7.71;;;;;;;-0.46;95.02;100742.59;2012585;80;20322;-71
2022/01/11 04:08:35;;;;;;;12.13;6.92;;;;;;;-0.42;95.43;100746.19;2012847;80;20236;-72
2022/01/11 04:11:37;;;;;;;15.17;7.71;;;;;;;-0.37;95.65;100742.25;2012404;80;20230;-71
2022/01/11 04:14:40;;;;;;;14.63;7.56;;;;;;;-0.36;95.65;100741.47;2012895;80;20221;-71
2022/01/11 04:17:43;;;;;;;15.92;7.12;;;;;;;-0.35;95.64;100735.59;2010657;78;20253;-71
2022/01/11 04:20:45;;;;;;;12.49;7.22;;;;;;;-0.31;95.87;100742.63;2012675;80;20168;-71
2022/01/11 04:23:48;;;;;;;16.47;7.36;;;;;;;-0.31;95.83;100747.75;2012603;80;20216;-71
2022/01/11 04:26:51;;;;;;;14.19;6.96;;;;;;;-0.32;95.76;100733.22;2011613;80;20257;-71
2022/01/11 04:29:53;;;;;;;14.90;7.61;;;;;;;-0.31;95.87;100746.06;2012822;80;20188;-71
2022/01/11 04:32:56;;;;;;;14.40;7.79;;;;;;;-0.35;95.59;100736.47;2010119;78;20671;-71
2022/01/11 04:36:01;;;;;;;12.33;7.80;;;;;;;-0.39;95.47;100731.94;2005504;80;20269;-71
2022/01/11 04:39:06;;;;;;;17.47;7.70;;;;;;;-0.40;95.48;100739.50;2005822;80;20169;-71
2022/01/11 04:42:08;;;;;;;13.84;7.56;;;;;;;-0.40;95.43;100736.97;2006382;80;20234;-71
2022/01/11 04:45:14;;;;;;;14.56;7.70;;;;;;;-0.37;95.67;100739.69;2005798;80;20788;-71
2022/01/11 04:48:18;;;;;;;19.61;8.69;;;;;;;-0.34;95.86;100740.78;2007067;78;20383;-71
2022/01/11 04:51:22;;;;;;;15.91;8.99;;;;;;;-0.33;95.83;100744.22;2006628;80;20232;-71
2022/01/11 04:54:24;;;;;;;19.40;9.89;;;;;;;-0.32;95.94;100744.31;2007289;80;20188;-71
2022/01/11 04:57:27;;;;;;;15.56;9.08;;;;;;;-0.32;95.82;100743.44;2006945;80;20301;-71
2022/01/11 05:00:30;;;;;;;17.57;8.81;;;;;;;-0.31;95.92;100750.28;2006214;77;22482;-71
2022/01/11 05:03:33;;;;;;;12.95;6.89;;;;;;;-0.29;95.85;100752.94;2007906;80;20169;-71
2022/01/11 05:06:35;;;;;;;13.94;8.20;;;;;;;-0.28;95.85;100758.13;2007041;80;20319;-71
2022/01/11 05:09:38;;;;;;;13.17;7.41;;;;;;;-0.27;95.83;100762.44;2007180;80;21151;-71
2022/01/11 05:12:40;;;;;;;13.03;7.66;;;;;;;-0.28;95.76;100770.88;2007001;80;20169;-71
2022/01/11 05:15:44;;;;;;;13.16;7.68;;;;;;;-0.29;95.74;100763.16;2005458;79;21969;-71
2022/01/11 05:18:47;;;;;;;14.08;7.30;;;;;;;-0.29;95.68;100765.69;2007681;80;20310;-71
2022/01/11 05:21:50;;;;;;;13.49;7.93;;;;;;;-0.34;95.35;100766.31;2007682;80;20173;-71
2022/01/11 05:24:53;;;;;;;14.01;7.48;;;;;;;-0.36;95.48;100755.13;2007124;80;20209;-71
2022/01/11 05:27:55;;;;;;;12.60;7.56;;;;;;;-0.36;95.49;100765.34;2007422;80;20217;-71
2022/01/11 05:30:58;;;;;;;12.21;6.94;;;;;;;-0.37;95.33;100770.31;2004865;78;20242;-71
2022/01/11 05:34:01;;;;;;;14.61;7.87;;;;;;;-0.44;95.04;100776.72;2007098;80;20257;-71
2022/01/11 05:37:04;;;;;;;12.68;7.33;;;;;;;-0.46;95.00;100764.66;2010094;80;20192;-71
2022/01/11 05:40:09;;;;;;;14.73;8.01;;;;;;;-0.46;95.02;100772.31;2009762;80;20192;-71
2022/01/11 05:43:12;;;;;;;15.71;7.91;;;;;;;-0.51;94.63;100776.25;2010518;80;20350;-71
2022/01/11 05:46:15;;;;;;;13.31;7.78;;;;;;;-0.51;94.84;100787.34;2008696;78;20420;-71
2022/01/11 05:49:18;;;;;;;13.82;7.91;;;;;;;-0.51;94.85;100784.81;2010360;80;20198;-71
2022/01/11 05:52:20;;;;;;;14.09;8.90;;;;;;;-0.49;94.97;100787.44;2010556;80;20214;-71
2022/01/11 05:55:23;;;;;;;16.63;7.93;;;;;;;-0.49;94.90;100797.66;2009945;80;20287;-71
2022/01/11 05:58:26;;;;;;;14.67;7.84;;;;;;;-0.53;94.85;100799.13;2010886;80;20210;-71
2022/01/11 06:01:28;;;;;;;11.72;7.17;;;;;;;-0.54;94.72;100804.09;2008412;78;23378;-71
2022/01/11 06:04:31;;;;;;;13.24;7.47;;;;;;;-0.52;94.96;100800.00;2009463;80;20897;-71
2022/01/11 06:07:34;;;;;;;11.27;7.70;;;;;;;-0.52;94.96;100803.44;2010526;80;21081;-71
2022/01/11 06:10:36;;;;;;;11.08;6.41;;;;;;;-0.54;94.83;100806.66;2011918;80;20229;-71
2022/01/11 06:13:39;;;;;;;12.71;6.04;;;;;;;-0.55;94.73;100820.19;2011499;80;20238;-71
2022/01/11 06:16:41;;;;;;;9.80;6.20;;;;;;;-0.59;94.71;100811.47;2009981;78;20181;-71
2022/01/11 06:19:44;;;;;;;12.73;7.20;;;;;;;-0.61;94.55;100807.97;2009553;80;20791;-71
2022/01/11 06:22:47;;;;;;;12.71;7.40;;;;;;;-0.63;94.72;100815.50;2011639;80;20184;-71
2022/01/11 06:25:49;;;;;;;11.89;6.72;;;;;;;-0.61;94.88;100813.94;2012080;80;20201;-71
2022/01/11 06:28:52;;;;;;;10.59;6.64;;;;;;;-0.63;94.79;100820.63;2012005;80;20204;-72
2022/01/11 06:31:55;;;;;;;12.93;7.24;;;;;;;-0.64;94.83;100825.63;2011409;78;28478;-71
2022/01/11 06:34:59;;;;;;;10.99;7.28;;;;;;;-0.61;95.08;100824.13;2011798;80;20193;-71
2022/01/11 06:38:01;;;;;;;15.51;8.34;;;;;;;-0.58;95.08;100825.13;2010436;80;20200;-71
2022/01/11 06:41:04;;;;;;;16.03;8.42;;;;;;;-0.68;94.62;100828.78;2010343;80;20210;-71
2022/01/11 06:44:07;;;;;;;17.18;8.14;;;;;;;-0.67;94.87;100831.41;2015750;80;20198;-71
2022/01/11 06:47:10;;;;;;;17.17;8.14;;;;;;;-0.68;94.77;100826.22;2010336;78;20557;-71
2022/01/11 06:50:13;;;;;;;13.24;8.20;;;;;;;-0.70;94.78;100830.34;2010639;80;20176;-71
2022/01/11 06:53:16;;;;;;;16.14;8.17;;;;;;;-0.73;94.62;100833.56;2011014;80;20307;-71
2022/01/11 06:56:20;;;;;;;13.14;7.30;;;;;;;-0.74;94.70;100826.69;2010908;80;20687;-71
2022/01/11 06:59:23;;;;;;;14.21;8.13;;;;;;;-0.77;94.45;100834.16;2010843;80;20188;-71
2022/01/11 07:02:26;;;;;;;16.66;8.97;;;;;;;-0.86;94.38;100832.69;2010754;77;22192;-71
2022/01/11 07:05:29;;;;;;;15.98;6.93;;;;;;;-0.85;94.73;100840.44;2011629;80;20759;-71
2022/01/11 07:08:32;;;;;;;14.51;7.94;;;;;;;-0.84;94.82;100839.66;2010972;80;20770;-71
2022/01/11 07:11:35;;;;;;;15.54;8.40;;;;;;;-0.85;94.80;100839.56;2010392;80;20262;-70
2022/01/11 07:14:38;;;;;;;17.03;9.51;;;;;;;-0.80;95.04;100845.84;2010710;80;20206;-70
2022/01/11 07:17:42;;;;;;;17.99;8.63;;;;;;;-0.80;95.10;100851.81;2011350;78;22324;-70
2022/01/11 07:20:44;;;;;;;12.79;8.23;;;;;;;-0.79;95.14;100851.03;2011060;80;20317;-72
2022/01/11 07:23:47;;;;;;;20.93;8.60;;;;;;;-0.83;94.84;100849.06;2011337;80;20180;-72
2022/01/11 07:26:50;;;;;;;16.56;8.97;;;;;;;-0.89;94.60;100856.34;2012535;80;20172;-70
2022/01/11 07:29:53;;;;;;;17.32;8.82;;;;;;;-0.92;94.75;100859.53;2012899;80;20173;-70
2022/01/11 07:32:56;;;;;;;16.90;7.67;;;;;;;-0.89;94.79;100866.53;2013236;78;21173;-72
2022/01/11 07:35:59;;;;;;;14.52;8.24;;;;;;;-0.88;94.88;100865.75;2012617;80;20206;-71
2022/01/11 07:39:03;;;;;;;14.22;8.37;;;;;;;-0.88;94.83;100865.75;2012744;80;20172;-72
2022/01/11 07:42:06;;;;;;;15.93;8.72;;;;;;;-0.87;94.82;100870.06;2013022;80;20322;-70
2022/01/11 07:45:09;;;;;;;15.41;8.37;;;;;;;-0.90;94.60;100869.84;2010905;80;20200;-71
2022/01/11 07:48:11;;;;;;;12.89;7.84;;;;;;;-0.88;94.83;100878.50;2011989;77;26028;-71
2022/01/11 07:51:14;;;;;;;12.29;7.32;;;;;;;-0.87;94.68;100871.72;2016121;80;20236;-72
2022/01/11 07:54:16;;;;;;;11.98;7.12;;;;;;;-0.88;94.60;100887.81;2012270;80;20222;-72
2022/01/11 07:57:19;;;;;;;14.49;7.36;;;;;;;-0.89;94.56;100896.25;2011968;80;20188;-71
2022/01/11 08:00:21;;;;;;;17.22;6.89;;;;;;;-0.90;94.38;100897.88;2010967;78;20180;-71
2022/01/11 08:03:24;;;;;;;11.89;6.78;;;;;;;-0.97;94.22;100900.81;2012080;80;20284;-71
2022/01/11 08:06:26;;;;;;;13.79;7.99;;;;;;;-1.04;94.04;100903.78;2013246;80;20247;-70
2022/01/11 08:09:29;;;;;;;11.70;7.68;;;;;;;-1.08;94.17;100911.97;2012705;80;20184;-70
2022/01/11 08:12:32;;;;;;;13.88;8.07;;;;;;;-1.09;94.17;100915.31;2012143;80;20271;-72
2022/01/11 08:15:35;;;;;;;14.51;8.26;;;;;;;-1.13;94.04;100921.88;2011094;77;20648;-70
2022/01/11 08:18:39;;;;;;;13.52;8.28;;;;;;;-1.10;94.46;100919.50;2011917;80;20248;-70
2022/01/11 08:21:41;;;;;;;13.93;7.87;;;;;;;-1.06;94.46;100926.59;2012057;80;20210;-72
2022/01/11 08:24:44;;;;;;;14.88;7.81;;;;;;;-1.09;94.25;100934.03;2013187;80;20261;-74
2022/01/11 08:27:47;;;;;;;17.73;8.82;;;;;;;-1.10;94.37;100927.16;2012854;80;20263;-73
2022/01/11 08:30:50;;;;;;;15.07;8.52;;;;;;;-1.02;94.61;100923.47;2011263;78;21926;-73
2022/01/11 08:33:52;;;;;;;13.39;8.03;;;;;;;-0.99;94.44;100923.66;2012467;80;20978;-72
2022/01/11 08:36:55;;;;;;;13.76;7.58;;;;;;;-1.04;94.00;100932.69;2011155;80;20185;-70
2022/01/11 08:39:58;;;;;;;14.21;8.28;;;;;;;-1.05;93.96;100932.59;2010670;80;20176;-70
2022/01/11 08:43:04;;;;;;;12.39;7.63;;;;;;;-1.05;93.84;100940.22;2010961;80;20208;-70
2022/01/11 08:46:07;;;;;;;12.36;7.89;;;;;;;-1.05;93.77;100945.34;2009145;78;20546;-71
2022/01/11 08:49:11;;;;;;;15.99;7.91;;;;;;;-1.02;93.91;100946.41;2010179;80;20180;-70
2022/01/11 08:52:14;;;;;;;14.66;8.02;;;;;;;-1.01;93.78;100942.19;2010833;80;20293;-70
2022/01/11 08:55:17;;;;;;;11.29;7.84;;;;;;;-0.96;93.99;100940.81;2011621;80;20237;-70
2022/01/11 08:58:20;;;;;;;9.80;7.17;;;;;;;-0.86;94.04;100935.56;2011969;80;20217;-70
2022/01/11 09:01:28;;;;;;;13.77;7.76;;;;;;;-0.83;93.87;100940.88;2010405;77;21629;-71
2022/01/11 09:04:32;;;;;;;15.64;8.32;;;;;;;-0.76;93.76;100947.22;2012773;80;20172;-72
2022/01/11 09:07:34;;;;;;;14.08;8.16;;;;;;;-0.73;93.70;100943.22;2013535;80;21457;-71
2022/01/11 09:10:37;;;;;;;12.30;8.00;;;;;;;-0.68;93.59;100949.53;2012360;80;21005;-71
2022/01/11 09:13:39;;;;;;;14.71;9.10;;;;;;;-0.64;93.41;100945.50;2011066;80;20198;-71
2022/01/11 09:16:42;;;;;;;12.40;8.44;;;;;;;-0.60;93.53;100939.81;2009690;78;20845;-71
2022/01/11 09:19:45;;;;;;;15.01;8.41;;;;;;;-0.53;93.42;100946.22;2012567;80;20188;-71
2022/01/11 09:22:47;;;;;;;14.23;8.80;;;;;;;-0.53;93.08;100951.31;2010698;80;20317;-71
2022/01/11 09:25:50;;;;;;;13.44;8.79;;;;;;;-0.52;93.06;100948.84;2012055;80;20245;-71
2022/01/11 09:28:53;;;;;;;16.31;9.19;;;;;;;-0.48;92.90;100944.81;2011890;80;20642;-71
2022/01/11 09:31:57;;;;;;;15.68;8.76;;;;;;;-0.42;92.85;100940.09;2010586;77;21719;-71
2022/01/11 09:35:00;;;;;;;14.59;8.39;;;;;;;-0.30;92.98;100943.44;2009894;80;20220;-71
2022/01/11 09:38:02;;;;;;;15.00;9.03;;;;;;;-0.21;92.66;100943.13;2010944;80;20165;-71
2022/01/11 09:41:05;;;;;;;16.30;9.36;;;;;;;-0.19;92.14;100945.00;2010298;80;20854;-72
2022/01/11 09:44:09;;;;;;;16.86;9.66;;;;;;;-0.15;91.71;100946.97;2011063;80;20224;-71
2022/01/11 09:47:12;;;;;;;19.52;10.18;;;;;;;-0.16;91.37;100947.75;2009611;77;22756;-71
2022/01/11 09:50:16;;;;;;;18.77;9.54;;;;;;;-0.11;91.51;100948.03;2010446;80;20267;-71
2022/01/11 09:53:19;;;;;;;20.37;10.04;;;;;;;-0.09;91.29;100947.34;2009434;80;20165;-71
2022/01/11 09:56:21;;;;;;;24.17;11.52;;;;;;;-0.01;91.49;100946.16;2009392;80;20258;-71
2022/01/11 09:59:24;;;;;;;19.63;11.54;;;;;;;0.05;91.32;100953.31;2009681;80;20326;-71
2022/01/11 10:02:27;;;;;;;26.82;12.39;;;;;;;0.05;91.04;100953.31;2007555;78;21183;-71
2022/01/11 10:05:30;;;;;;;23.83;11.94;;;;;;;0.07;90.90;100954.31;2009001;80;20208;-71
2022/01/11 10:08:34;;;;;;;27.49;13.40;;;;;;;0.12;90.96;100946.91;2009222;80;20850;-71
2022/01/11 10:11:42;;;;;;;31.44;14.33;;;;;;;0.09;90.49;100950.16;2008323;80;20303;-71
2022/01/11 10:14:57;;;;;;;32.81;14.21;;;;;;;0.14;90.66;100951.31;2008773;80;21093;-71
2022/01/11 10:18:00;;;;;;;27.48;13.14;;;;;;;0.20;90.71;100955.97;2007222;78;20307;-71
2022/01/11 10:21:34;;;;;;;31.56;13.59;;;;;;;0.26;91.05;100959.75;2009515;80;20687;-71
2022/01/11 10:24:42;;;;;;;29.42;13.17;;;;;;;0.40;91.27;100959.72;2010618;80;20711;-71
2022/01/11 10:27:57;;;;;;;26.40;11.55;;;;;;;0.38;90.88;100964.75;2007613;80;20184;-72
2022/01/11 10:31:01;;;;;;;25.14;12.31;;;;;;;0.38;90.51;100957.09;2007703;78;21087;-72
2022/01/11 10:34:04;;;;;;;24.27;11.78;;;;;;;0.45;90.65;100953.22;2008648;80;20184;-72
2022/01/11 10:37:07;;;;;;;27.36;12.98;;;;;;;0.60;90.96;100960.16;2009078;80;20232;-72
2022/01/11 10:40:19;;;;;;;20.61;11.49;;;;;;;0.78;91.11;100957.81;2009210;80;20363;-72
2022/01/11 10:43:23;;;;;;;20.94;11.31;;;;;;;0.89;90.83;100954.19;2010018;80;20220;-72
2022/01/11 10:46:42;;;;;;;21.18;11.39;;;;;;;0.93;89.98;100964.63;2007981;80;50446;-72
2022/01/11 10:49:53;;;;;;;24.16;11.76;;;;;;;1.06;89.89;100959.44;2009827;80;20220;-72
2022/01/11 10:53:01;;;;;;;22.46;11.98;;;;;;;1.16;89.50;100956.63;2009844;80;20344;-72
2022/01/11 10:56:06;;;;;;;25.34;12.65;;;;;;;1.28;89.46;100961.59;2010514;80;21007;-72
2022/01/11 10:59:17;;;;;;;21.05;11.49;;;;;;;1.41;nan;100958.91;2010902;80;20456;-72
2022/01/11 11:02:26;;;;;;;23.10;11.07;;;;;;;1.55;89.20;100977.63;2012472;77;21977;-72
2022/01/11 11:05:34;;;;;;;22.79;11.49;;;;;;;1.59;88.55;100966.75;2009710;80;20520;-72
2022/01/11 11:08:42;;;;;;;21.48;12.34;;;;;;;1.68;88.40;100960.50;2010525;80;20318;-72
2022/01/11 11:11:44;;;;;;;24.40;11.64;;;;;;;1.74;88.25;100959.94;2009656;80;20428;-70
2022/01/11 11:14:55;;;;;;;20.52;11.80;;;;;;;1.80;88.02;100953.50;2010515;80;20306;-71
2022/01/11 11:17:58;;;;;;;17.01;11.01;;;;;;;1.84;87.62;100945.97;2009010;77;21623;-71
2022/01/11 11:21:32;;;;;;;20.02;11.13;;;;;;;1.81;87.54;100949.25;2008842;80;20395;-71
2022/01/11 11:24:35;;;;;;;22.29;11.98;;;;;;;1.81;87.69;100947.59;2009681;80;20326;-71
2022/01/11 11:27:38;;;;;;;25.11;13.49;;;;;;;1.79;87.68;100940.59;2010526;80;20521;-70
2022/01/11 11:30:42;;;;;;;25.38;13.68;;;;;;;1.79;87.75;100938.91;2008608;77;21385;-71
2022/01/11 11:33:45;;;;;;;26.26;13.34;;;;;;;1.81;88.04;100926.22;2010565;80;20826;-71
2022/01/11 11:36:49;;;;;;;26.58;14.36;;;;;;;1.78;87.96;100919.22;2010213;80;20351;-71
2022/01/11 11:39:56;;;;;;;26.99;13.43;;;;;;;1.79;88.10;100910.72;2011356;80;20399;-70
2022/01/11 11:43:04;;;;;;;26.05;13.88;;;;;;;1.77;88.12;100914.00;2010351;80;20375;-72
2022/01/11 11:46:08;;;;;;;25.06;14.32;;;;;;;1.81;88.51;100908.28;2007987;78;23196;-71
2022/01/11 11:49:13;;;;;;;26.74;13.89;;;;;;;1.89;88.70;100907.00;2009929;80;20188;-71
2022/01/11 11:52:24;;;;;;;21.73;11.93;;;;;;;1.98;88.96;100906.66;2011683;80;20322;-71
2022/01/11 11:55:30;;;;;;;20.63;11.36;;;;;;;2.08;88.93;100901.22;2009013;80;20980;-71
2022/01/11 11:58:40;;;;;;;19.52;11.84;;;;;;;2.17;88.79;100890.59;2011443;80;20769;-71
2022/01/11 12:01:45;;;;;;;19.21;11.75;;;;;;;2.27;88.52;100890.25;2009347;77;30012;-71
2022/01/11 12:04:53;;;;;;;18.34;11.18;;;;;;;2.38;88.34;100890.03;2011613;80;20482;-71
2022/01/11 12:07:56;;;;;;;20.79;11.30;;;;;;;2.54;88.50;100891.72;2011395;80;20354;-71
2022/01/11 12:11:04;;;;;;;20.13;10.98;;;;;;;2.64;87.76;100878.53;2011374;80;20329;-71
2022/01/11 12:14:07;;;;;;;18.92;10.42;;;;;;;2.75;87.45;100879.09;2011487;80;20374;-71
2022/01/11 12:17:16;;;;;;;17.76;10.10;;;;;;;2.90;87.28;100879.00;2009416;78;23229;-71
2022/01/11 12:20:43;;;;;;;17.19;10.01;;;;;;;3.04;86.54;100871.16;2011270;80;20334;-71
2022/01/11 12:23:48;;;;;;;17.38;9.74;;;;;;;3.19;86.30;100881.28;2010016;80;20202;-71
2022/01/11 12:26:57;;;;;;;15.00;9.14;;;;;;;3.33;86.12;100879.41;2011269;80;20394;-71
2022/01/11 12:30:07;;;;;;;;;;;;;;;3.45;85.37;100882.56;2011304;80;20451;-71
2022/01/11 12:33:16;;;;;;;12.98;7.55;;;;;;;3.58;85.09;100874.63;2011129;77;21305;-71
2022/01/11 12:36:19;;;;;;;11.10;7.44;;;;;;;3.72;84.87;100879.53;2011369;80;20323;-70
2022/01/11 12:39:23;;;;;;;16.56;6.88;;;;;;;3.84;84.48;100881.00;2011362;80;20719;-70
2022/01/11 12:42:27;;;;;;;7.66;5.46;;;;;;;3.96;84.09;100872.09;2011826;80;20325;-70
2022/01/11 12:45:58;;;;;;;8.75;5.32;;;;;;;4.06;82.94;100874.25;2009573;77;21665;-70
2022/01/11 12:49:01;;;;;;;8.50;5.55;;;;;;;4.17;81.99;100871.38;2012072;80;20348;-70
2022/01/11 12:52:09;;;;;;;7.90;5.03;;;;;;;4.30;81.40;100879.63;2011377;80;20314;-70
2022/01/11 12:55:12;;;;;;;8.76;4.63;;;;;;;4.35;80.54;100873.88;2011467;80;20482;-70
2022/01/11 12:58:17;;;;;;;7.09;4.63;;;;;;;4.46;80.05;100871.78;2011745;80;20387;-70
2022/01/11 13:01:20;;;;;;;5.85;3.47;;;;;;;4.54;79.24;100876.47;2010635;77;30038;-70
2022/01/11 13:04:38;;;;;;;6.28;3.71;;;;;;;4.63;77.84;100875.06;2010995;80;20451;-70
2022/01/11 13:07:45;;;;;;;6.35;3.59;;;;;;;4.72;77.67;100876.38;2011731;80;20991;-70
2022/01/11 13:10:48;;;;;;;6.13;3.53;;;;;;;4.77;77.30;100873.97;2011398;80;20365;-70
2022/01/11 13:14:17;;;;;;;6.75;3.99;;;;;;;4.79;77.17;100865.50;2007995;80;20372;-70
2022/01/11 13:17:20;;;;;;;5.85;3.46;;;;;;;4.83;76.27;100861.38;2009515;78;24669;-70
2022/01/11 13:20:24;;;;;;;7.45;3.13;;;;;;;4.90;76.44;100858.25;2011422;80;20220;-70
2022/01/11 13:27:08;;;;;;;5.00;3.04;;;;;;;4.90;75.27;100852.22;2004541;80;20370;-70
2022/01/11 13:30:11;;;;;;;5.71;3.16;;;;;;;4.90;75.30;100855.69;2010073;80;20189;-70
2022/01/11 13:33:31;;;;;;;3.99;2.91;;;;;;;4.95;74.52;100861.88;2010541;78;25412;-70
2022/01/11 13:36:39;;;;;;;4.97;2.70;;;;;;;4.99;74.89;100860.31;2010881;80;20355;-70
2022/01/11 13:39:41;;;;;;;5.89;3.04;;;;;;;5.00;75.18;100857.81;2011728;80;20326;-70
2022/01/11 13:42:46;;;;;;;4.05;3.15;;;;;;;4.99;75.13;100861.19;2011559;80;20326;-70
2022/01/11 13:45:49;;;;;;;4.46;2.61;;;;;;;4.98;75.24;100856.00;2010266;77;21449;-70
2022/01/11 13:48:53;;;;;;;4.91;2.79;;;;;;;4.98;75.28;100853.41;2010551;80;21112;-70
2022/01/11 13:51:58;;;;;;;4.29;2.70;;;;;;;4.99;75.17;100857.75;2011250;80;20866;-70
2022/01/11 13:55:01;;;;;;;4.05;2.79;;;;;;;4.96;74.72;100855.94;2011042;80;20996;-71
2022/01/11 13:58:03;;;;;;;3.74;2.80;;;;;;;4.89;74.30;100853.06;2010818;80;20418;-71
2022/01/11 14:01:12;;;;;;;6.94;2.64;;;;;;;4.82;73.74;100855.34;2010300;77;37539;-71
2022/01/11 14:04:17;;;;;;;2.76;2.39;;;;;;;4.80;73.23;100856.09;2006612;80;20857;-72
2022/01/11 14:07:24;;;;;;;2.83;2.13;;;;;;;4.76;72.83;100860.25;2010855;80;20161;-71
2022/01/11 14:10:35;;;;;;;2.46;1.88;;;;;;;4.71;73.27;100859.19;2010490;80;20387;-71
2022/01/11 14:13:40;;;;;;;8.09;3.84;;;;;;;4.63;73.17;100857.94;2010944;80;20355;-71
2022/01/11 14:16:43;;;;;;;13.38;6.71;;;;;;;4.53;73.51;100858.38;2005457;78;24402;-71
2022/01/11 14:19:52;;;;;;;9.76;5.64;;;;;;;4.49;73.95;100854.81;2010650;80;20432;-71